Time;durP1;ratioP1;P1;durP2;ratioP2;P2;SDS_P1;SDS_P2;PMS_P1;PMS_P2;Temp;Humidity;BMP_temperature;BMP_pressure;BME280_temperature;BME280_humidity;BME280_pressure;Samples;Min_cycle;Max_cycle;Signal;HPM_P1;HPM_P2
2023/08/11 00:01:31;;;;;;;;;;;;;;;27.28;28.09;98744.75;5084692;27;19921;-81
2023/08/11 00:03:57;;;;;;;;;;;;;;;27.43;27.74;98743.19;5076636;27;20336;-81
2023/08/11 00:06:23;;;;;;;;;;;;;;;27.32;28.02;98745.44;5055429;27;20004;-81
2023/08/11 00:08:49;;;;;;;;;;;;;;;27.28;27.96;98739.88;5077270;27;20018;-81
2023/08/11 00:11:15;;;;;;;;;;;;;;;27.31;27.93;98733.38;5090664;28;19935;-81
2023/08/11 00:13:42;;;;;;;;;;;;;;;27.30;27.93;98742.28;5058714;27;19924;-81
2023/08/11 00:16:10;;;;;;;;;;;;;;;27.32;28.05;98742.63;5082463;28;19927;-81
2023/08/11 00:18:36;;;;;;;;;;;;;;;27.15;27.95;98741.81;5084075;27;19959;-81
2023/08/11 00:21:02;;;;;;;;;;;;;;;27.07;27.89;98740.41;5086252;27;20266;-81
2023/08/11 00:23:30;;;;;;;;;;;;;;;27.16;27.76;98739.81;5084077;27;19968;-81
2023/08/11 00:25:56;;;;;;;;;;;;;;;27.20;27.66;98737.69;5091880;27;20402;-81
2023/08/11 00:28:22;;;;;;;;;;;;;;;27.12;28.02;98739.88;5077632;27;19942;-81
2023/08/11 00:30:49;;;;;;;;;;;;;;;27.06;27.86;98740.84;5056939;27;20316;-81
2023/08/11 00:33:15;;;;;;;;;;;;;;;27.01;28.21;98738.53;5081110;27;19920;-81
2023/08/11 00:35:42;;;;;;;;;;;;;;;26.94;28.18;98738.72;5065708;27;19929;-81
2023/08/11 00:38:08;;;;;;;;;;;;;;;26.95;28.01;98740.31;5082860;27;20404;-81
2023/08/11 00:40:34;;;;;;;;;;;;;;;27.00;28.42;98740.56;5084600;27;19924;-81
2023/08/11 00:43:00;;;;;;;;;;;;;;;27.15;27.79;98738.22;5085417;27;19925;-81
2023/08/11 00:45:26;;;;;;;;;;;;;;;27.20;27.70;98734.88;5083024;27;19934;-81
2023/08/11 00:47:53;;;;;;;;;;;;;;;27.25;27.51;98729.50;5085177;27;20011;-81
2023/08/11 00:50:19;;;;;;;;;;;;;;;27.32;27.46;98732.16;5073026;27;19984;-81
2023/08/11 00:52:45;;;;;;;;;;;;;;;27.20;27.53;98732.84;5087198;27;19939;-81
2023/08/11 00:55:12;;;;;;;;;;;;;;;27.10;27.60;98733.09;5074131;27;19921;-81
2023/08/11 00:57:39;;;;;;;;;;;;;;;27.03;27.78;98733.25;5084679;27;19927;-81
2023/08/11 01:00:12;;;;;;;;;;;;;;;27.02;27.98;98732.47;5079369;27;20012;-81
2023/08/11 01:02:42;;;;;;;;;;;;;;;27.10;27.48;98738.72;5084358;27;20381;-81
2023/08/11 01:05:12;;;;;;;;;;;;;;;27.13;27.43;98732.22;5078230;27;19977;-81
2023/08/11 01:07:59;;;;;;;;;;;;;;;27.15;27.30;98729.75;5077837;27;20377;-81
2023/08/11 01:10:45;;;;;;;;;;;;;;;27.18;27.25;98731.69;5087541;27;19920;-81
2023/08/11 01:13:15;;;;;;;;;;;;;;;27.20;27.27;98732.84;5081517;27;20376;-81
2023/08/11 01:15:44;;;;;;;;;;;;;;;27.26;26.67;98724.63;5066187;27;20273;-81
2023/08/11 01:18:12;;;;;;;;;;;;;;;27.06;27.12;98729.56;5080504;27;19921;-81
2023/08/11 01:20:38;;;;;;;;;;;;;;;26.83;27.91;98730.50;5079384;27;19965;-81
2023/08/11 01:23:06;;;;;;;;;;;;;;;26.78;27.78;98733.03;5074162;27;19991;-81
2023/08/11 01:25:32;;;;;;;;;;;;;;;26.77;27.47;98734.28;5084848;27;19928;-81
2023/08/11 01:27:59;;;;;;;;;;;;;;;26.64;28.15;98732.09;5081379;27;19920;-81
2023/08/11 01:30:26;;;;;;;;;;;;;;;26.64;27.61;98732.09;5074099;27;20018;-81
2023/08/11 01:32:52;;;;;;;;;;;;;;;26.58;27.91;98730.25;5078324;27;19920;-81
2023/08/11 01:35:19;;;;;;;;;;;;;;;26.60;28.05;98731.41;5067211;27;19926;-81
2023/08/11 01:37:45;;;;;;;;;;;;;;;26.64;27.85;98726.47;5091896;27;19916;-81
2023/08/11 01:40:13;;;;;;;;;;;;;;;26.74;27.82;98736.72;5080628;27;20628;-81
2023/08/11 01:42:40;;;;;;;;;;;;;;;26.79;27.43;98731.81;5073132;27;19947;-81
2023/08/11 01:45:07;;;;;;;;;;;;;;;26.74;27.45;98724.66;5075143;27;20006;-81
2023/08/11 01:47:34;;;;;;;;;;;;;;;26.82;27.39;98730.94;5086644;27;19961;-81
2023/08/11 01:50:00;;;;;;;;;;;;;;;26.64;27.69;98729.28;5082930;27;19955;-81
2023/08/11 01:52:26;;;;;;;;;;;;;;;26.59;27.84;98729.00;5079729;27;19927;-81
2023/08/11 01:54:52;;;;;;;;;;;;;;;26.68;27.48;98726.38;5080598;27;19924;-81
2023/08/11 01:57:19;;;;;;;;;;;;;;;26.66;27.59;98726.03;5085507;27;19916;-81
2023/08/11 01:59:45;;;;;;;;;;;;;;;26.50;27.61;98725.97;5071406;27;19928;-81
2023/08/11 02:02:11;;;;;;;;;;;;;;;26.38;27.76;98723.81;5075652;27;20015;-81
2023/08/11 02:04:38;;;;;;;;;;;;;;;26.31;27.88;98726.78;5062248;27;20288;-81
2023/08/11 02:07:04;;;;;;;;;;;;;;;26.37;28.10;98728.66;5083148;27;19930;-81
2023/08/11 02:09:31;;;;;;;;;;;;;;;26.58;27.51;98730.25;5080640;27;19920;-81
2023/08/11 02:11:57;;;;;;;;;;;;;;;26.51;27.06;98728.34;5084975;27;20036;-81
2023/08/11 02:14:23;;;;;;;;;;;;;;;26.43;27.45;98726.13;5084034;27;19924;-81
2023/08/11 02:16:49;;;;;;;;;;;;;;;26.50;27.50;98731.63;5079196;27;20381;-81
2023/08/11 02:19:15;;;;;;;;;;;;;;;26.50;27.42;98732.41;5079029;27;19920;-81
2023/08/11 02:21:42;;;;;;;;;;;;;;;26.45;27.95;98729.31;5083485;27;19920;-81
2023/08/11 02:24:08;;;;;;;;;;;;;;;26.59;27.88;98732.63;5076570;27;19920;-81
2023/08/11 02:26:34;;;;;;;;;;;;;;;26.55;27.66;98729.09;5081118;27;19931;-81
2023/08/11 02:29:00;;;;;;;;;;;;;;;26.62;27.55;98730.94;5079833;27;20396;-81
2023/08/11 02:31:26;;;;;;;;;;;;;;;26.67;27.24;98730.44;5074372;27;19928;-81
2023/08/11 02:33:52;;;;;;;;;;;;;;;26.42;27.38;98736.59;5071808;27;20437;-81
2023/08/11 02:36:20;;;;;;;;;;;;;;;26.29;28.06;98732.84;5058369;27;20004;-81
2023/08/11 02:38:46;;;;;;;;;;;;;;;26.36;27.81;98738.34;5077745;27;19920;-81
2023/08/11 02:41:12;;;;;;;;;;;;;;;26.42;27.91;98735.81;5080846;27;19946;-81
2023/08/11 02:43:38;;;;;;;;;;;;;;;26.28;27.87;98745.34;5066606;27;19928;-81
2023/08/11 02:46:05;;;;;;;;;;;;;;;26.28;28.27;98733.31;5079950;27;19928;-81
2023/08/11 02:48:33;;;;;;;;;;;;;;;26.49;27.65;98735.69;5075247;27;19927;-81
2023/08/11 02:51:01;;;;;;;;;;;;;;;26.41;27.78;98737.84;5074098;27;19939;-81
2023/08/11 02:53:28;;;;;;;;;;;;;;;26.33;27.50;98739.22;5083902;27;19966;-81
2023/08/11 02:55:54;;;;;;;;;;;;;;;26.39;27.62;98733.88;5079957;27;20034;-81
2023/08/11 02:58:20;;;;;;;;;;;;;;;26.47;27.14;98733.28;5084201;27;19917;-81
2023/08/11 03:00:47;;;;;;;;;;;;;;;26.54;27.26;98744.38;5071859;28;19920;-81
2023/08/11 03:03:13;;;;;;;;;;;;;;;26.30;27.32;98742.88;5081801;27;19916;-81
2023/08/11 03:05:39;;;;;;;;;;;;;;;26.32;27.16;98737.63;5079493;27;20397;-81
2023/08/11 03:08:05;;;;;;;;;;;;;;;26.44;27.70;98751.03;5076461;27;20026;-80
2023/08/11 03:10:31;;;;;;;;;;;;;;;26.43;27.01;98746.66;5080352;27;19924;-80
2023/08/11 03:12:57;;;;;;;;;;;;;;;26.38;27.14;98744.34;5071970;27;19969;-80
2023/08/11 03:15:23;;;;;;;;;;;;;;;26.46;27.29;98750.63;5075068;27;19989;-80
2023/08/11 03:17:49;;;;;;;;;;;;;;;26.55;27.08;98748.81;5078163;27;19920;-80
2023/08/11 03:20:15;;;;;;;;;;;;;;;26.47;27.12;98753.00;5078813;27;19952;-80
2023/08/11 03:22:42;;;;;;;;;;;;;;;26.38;27.08;98752.78;5077678;27;19995;-81
2023/08/11 03:25:09;;;;;;;;;;;;;;;26.32;26.96;98759.34;5078684;27;19924;-80
2023/08/11 03:27:35;;;;;;;;;;;;;;;26.31;27.69;98755.75;5075264;28;19921;-80
2023/08/11 03:30:01;;;;;;;;;;;;;;;26.32;27.35;98754.53;5078947;27;19927;-80
2023/08/11 03:32:27;;;;;;;;;;;;;;;26.39;27.37;98753.59;5086526;27;19920;-80
2023/08/11 03:34:53;;;;;;;;;;;;;;;26.46;26.97;98757.06;5082444;27;20411;-80
2023/08/11 03:37:19;;;;;;;;;;;;;;;26.13;26.99;98760.13;5080053;27;20376;-81
2023/08/11 03:39:46;;;;;;;;;;;;;;;25.93;27.40;98757.25;5080944;27;19916;-80
2023/08/11 03:42:12;;;;;;;;;;;;;;;26.02;27.35;98761.09;5080600;27;19924;-80
2023/08/11 03:44:38;;;;;;;;;;;;;;;26.09;27.51;98763.00;5081400;27;19972;-80
2023/08/11 03:47:05;;;;;;;;;;;;;;;26.23;27.32;98764.78;5080805;27;19947;-80
2023/08/11 03:49:31;;;;;;;;;;;;;;;26.18;27.35;98771.69;5084567;27;19920;-80
2023/08/11 03:51:57;;;;;;;;;;;;;;;26.22;27.48;98761.16;5076723;27;19928;-80
2023/08/11 03:54:23;;;;;;;;;;;;;;;26.43;27.35;98769.19;5086710;28;19920;-80
2023/08/11 03:56:49;;;;;;;;;;;;;;;26.50;27.74;98780.28;5079664;27;19929;-80
2023/08/11 03:59:15;;;;;;;;;;;;;;;26.58;27.57;98767.63;5072690;27;20381;-81
2023/08/11 04:01:41;;;;;;;;;;;;;;;26.69;27.45;98776.69;5081994;27;19924;-81
2023/08/11 04:04:07;;;;;;;;;;;;;;;26.69;27.17;98771.03;5075308;28;19920;-81
2023/08/11 04:06:33;;;;;;;;;;;;;;;26.56;27.78;98775.72;5085337;27;19929;-81
2023/08/11 04:09:00;;;;;;;;;;;;;;;26.86;28.31;98771.13;5091624;27;19926;-81
2023/08/11 04:11:26;;;;;;;;;;;;;;;27.35;28.12;98772.78;5081925;27;20408;-80
2023/08/11 04:13:52;;;;;;;;;;;;;;;27.80;28.13;98768.00;5075738;27;20288;-81
2023/08/11 04:16:19;;;;;;;;;;;;;;;27.97;27.91;98765.97;5075772;27;19928;-81
2023/08/11 04:18:45;;;;;;;;;;;;;;;27.83;28.69;98778.44;5087332;27;19920;-81
2023/08/11 04:21:11;;;;;;;;;;;;;;;27.92;29.38;98780.59;5081121;27;20265;-81
2023/08/11 04:23:37;;;;;;;;;;;;;;;28.08;29.91;98774.97;5079910;27;19921;-81
2023/08/11 04:26:05;;;;;;;;;;;;;;;28.43;29.78;98767.53;5081940;27;19920;-81
2023/08/11 04:28:32;;;;;;;;;;;;;;;28.80;29.78;98769.66;5081583;27;19920;-81
2023/08/11 04:31:00;;;;;;;;;;;;;;;29.10;29.10;98776.84;5076374;27;19921;-81
2023/08/11 04:33:27;;;;;;;;;;;;;;;29.07;29.05;98780.56;5079606;27;19963;-81
2023/08/11 04:35:53;;;;;;;;;;;;;;;28.91;29.95;98778.66;5056997;27;19965;-81
2023/08/11 04:38:20;;;;;;;;;;;;;;;28.99;30.48;98785.66;5076285;27;19924;-81
2023/08/11 04:40:48;;;;;;;;;;;;;;;29.19;30.52;98783.44;5079024;27;19927;-83
2023/08/11 04:43:15;;;;;;;;;;;;;;;29.48;29.88;98791.03;5074290;27;19924;-81
2023/08/11 04:45:41;;;;;;;;;;;;;;;29.75;29.26;98789.28;5088232;27;19928;-81
2023/08/11 04:48:08;;;;;;;;;;;;;;;29.77;29.87;98788.84;5081422;27;19935;-82
2023/08/11 04:50:34;;;;;;;;;;;;;;;29.81;30.30;98790.31;5079598;27;19927;-81
2023/08/11 04:53:00;;;;;;;;;;;;;;;29.98;31.38;98794.56;5078678;27;20011;-82
2023/08/11 04:55:26;;;;;;;;;;;;;;;30.31;29.93;98799.91;5074771;27;19928;-82
2023/08/11 04:57:52;;;;;;;;;;;;;;;30.32;30.02;98804.28;5075076;27;20269;-81
2023/08/11 05:00:18;;;;;;;;;;;;;;;30.19;30.71;98803.56;5076532;28;19927;-81
2023/08/11 05:02:45;;;;;;;;;;;;;;;30.20;30.33;98805.94;5080908;27;20270;-81
2023/08/11 05:05:11;;;;;;;;;;;;;;;30.31;30.23;98809.19;5078849;27;19924;-81
2023/08/11 05:07:37;;;;;;;;;;;;;;;30.12;30.58;98810.28;5076565;27;19932;-81
2023/08/11 05:10:04;;;;;;;;;;;;;;;29.98;30.96;98805.91;5081092;27;19918;-81
2023/08/11 05:12:30;;;;;;;;;;;;;;;30.09;30.95;98811.19;5074964;27;19924;-82
2023/08/11 05:14:57;;;;;;;;;;;;;;;30.23;31.03;98818.38;5083678;27;19920;-82
2023/08/11 05:17:23;;;;;;;;;;;;;;;30.13;31.25;98809.00;5081459;27;19921;-82
2023/08/11 05:19:49;;;;;;;;;;;;;;;30.21;30.99;98812.38;5080208;27;19920;-82
2023/08/11 05:22:15;;;;;;;;;;;;;;;30.38;31.15;98817.47;5076471;27;19921;-82
2023/08/11 05:24:42;;;;;;;;;;;;;;;30.32;32.03;98815.63;5080664;28;19922;-82
2023/08/11 05:27:08;;;;;;;;;;;;;;;30.43;32.29;98816.88;5078798;27;19920;-82
2023/08/11 05:29:34;;;;;;;;;;;;;;;30.75;31.35;98815.69;5082294;27;19920;-83
2023/08/11 05:32:00;;;;;;;;;;;;;;;31.01;31.74;98807.84;5082369;27;20015;-80
2023/08/11 05:34:27;;;;;;;;;;;;;;;31.24;30.97;98808.13;5076042;27;20003;-81
2023/08/11 05:36:53;;;;;;;;;;;;;;;31.25;31.35;98812.53;5085548;27;19972;-81
2023/08/11 05:39:19;;;;;;;;;;;;;;;31.25;29.82;98806.09;5091518;27;20015;-81
2023/08/11 05:41:45;;;;;;;;;;;;;;;31.33;30.93;98801.69;5092526;27;19945;-81
2023/08/11 05:44:11;;;;;;;;;;;;;;;31.57;31.74;98802.78;5088211;28;19920;-81
2023/08/11 05:46:37;;;;;;;;;;;;;;;32.03;31.15;98806.53;5078486;27;19924;-81
2023/08/11 05:49:03;;;;;;;;;;;;;;;32.42;29.88;98811.28;5089117;27;20381;-81
2023/08/11 05:51:29;;;;;;;;;;;;;;;32.65;28.15;98810.66;5084503;27;19917;-81
2023/08/11 05:53:55;;;;;;;;;;;;;;;32.71;28.56;98817.31;5090114;27;19943;-81
2023/08/11 05:56:21;;;;;;;;;;;;;;;32.97;28.04;98814.91;5053544;27;20346;-82
2023/08/11 05:58:47;;;;;;;;;;;;;;;33.09;27.83;98811.09;5070623;27;19921;-81
2023/08/11 06:01:13;;;;;;;;;;;;;;;33.21;27.74;98812.94;5080006;27;20019;-81
2023/08/11 06:03:39;;;;;;;;;;;;;;;33.33;27.95;98814.00;5090255;27;19920;-82
2023/08/11 06:06:05;;;;;;;;;;;;;;;33.35;27.29;98822.88;5060363;27;19920;-82
2023/08/11 06:08:31;;;;;;;;;;;;;;;33.28;27.08;98814.69;5078287;28;20060;-82
2023/08/11 06:10:57;;;;;;;;;;;;;;;33.28;26.37;98817.53;5071791;27;19924;-82
2023/08/11 06:13:23;;;;;;;;;;;;;;;33.21;27.38;98815.78;5084629;27;20014;-82
2023/08/11 06:15:49;;;;;;;;;;;;;;;33.29;26.78;98814.19;5088956;27;20007;-82
2023/08/11 06:18:16;;;;;;;;;;;;;;;33.23;26.38;98812.47;5066084;28;19964;-82
2023/08/11 06:20:42;;;;;;;;;;;;;;;33.22;28.11;98806.00;5089203;28;20326;-82
2023/08/11 06:23:08;;;;;;;;;;;;;;;33.33;27.40;98809.09;5081954;27;20296;-82
2023/08/11 06:25:34;;;;;;;;;;;;;;;33.48;26.44;98811.25;5089932;28;19920;-82
2023/08/11 06:28:00;;;;;;;;;;;;;;;33.54;27.00;98815.84;5089396;28;19920;-82
2023/08/11 06:30:28;;;;;;;;;;;;;;;33.42;26.74;98817.63;5084006;27;20010;-82
2023/08/11 06:32:54;;;;;;;;;;;;;;;33.23;26.39;98821.03;5089488;27;20395;-82
2023/08/11 06:35:20;;;;;;;;;;;;;;;33.23;26.01;98821.81;5084427;28;19967;-82
2023/08/11 06:37:46;;;;;;;;;;;;;;;33.12;25.52;98821.50;5087404;28;19964;-82
2023/08/11 06:40:13;;;;;;;;;;;;;;;32.84;27.31;98814.28;5086699;28;19920;-82
2023/08/11 06:42:39;;;;;;;;;;;;;;;32.94;27.23;98820.75;5089773;28;19924;-82
2023/08/11 06:45:06;;;;;;;;;;;;;;;33.07;26.16;98825.00;5089920;28;20306;-82
2023/08/11 06:47:34;;;;;;;;;;;;;;;33.07;26.72;98827.84;5071018;28;19927;-82
2023/08/11 06:50:00;;;;;;;;;;;;;;;33.08;26.08;98826.59;5089161;28;19920;-83
2023/08/11 06:52:26;;;;;;;;;;;;;;;33.22;27.06;98823.06;5075424;28;19921;-83
2023/08/11 06:54:52;;;;;;;;;;;;;;;33.36;27.33;98836.63;5070381;27;19989;-83
2023/08/11 06:57:20;;;;;;;;;;;;;;;33.62;26.51;98833.38;5073815;28;19916;-83
2023/08/11 06:59:47;;;;;;;;;;;;;;;33.72;26.15;98832.06;5079806;28;19920;-82
2023/08/11 07:02:13;;;;;;;;;;;;;;;33.62;26.15;98836.22;5081523;28;19967;-83
2023/08/11 07:04:42;;;;;;;;;;;;;;;33.61;26.64;98828.97;5077049;27;20012;-83
2023/08/11 07:07:08;;;;;;;;;;;;;;;33.74;25.38;98832.38;5090775;28;20002;-83
2023/08/11 07:09:34;;;;;;;;;;;;;;;33.79;26.47;98832.53;5070134;27;20313;-82
2023/08/11 07:12:00;;;;;;;;;;;;;;;33.67;25.80;98827.81;5086757;28;19934;-83
2023/08/11 07:14:26;;;;;;;;;;;;;;;33.43;25.58;98830.59;5052360;28;20304;-82
2023/08/11 07:16:52;;;;;;;;;;;;;;;33.62;25.32;98833.38;5070293;28;19917;-83
2023/08/11 07:19:19;;;;;;;;;;;;;;;33.64;25.55;98833.69;5071689;28;19965;-83
2023/08/11 07:21:45;;;;;;;;;;;;;;;33.84;25.76;98831.06;5071749;28;19929;-83
2023/08/11 07:24:11;;;;;;;;;;;;;;;33.88;26.43;98834.53;5070225;28;19959;-83
2023/08/11 07:26:37;;;;;;;;;;;;;;;34.04;26.98;98845.53;5070421;27;19960;-83
2023/08/11 07:29:03;;;;;;;;;;;;;;;34.11;27.45;98842.31;5078080;28;19916;-83
2023/08/11 07:31:29;;;;;;;;;;;;;;;34.21;26.02;98843.84;5075809;27;19924;-83
2023/08/11 07:33:55;;;;;;;;;;;;;;;33.94;27.23;98839.06;5069943;28;19924;-83
2023/08/11 07:36:21;;;;;;;;;;;;;;;33.77;27.86;98845.66;5053598;28;19967;-83
2023/08/11 07:38:47;;;;;;;;;;;;;;;33.95;27.40;98848.41;5090323;28;19934;-83
2023/08/11 07:41:13;;;;;;;;;;;;;;;34.23;26.00;98851.91;5090172;28;19925;-83
2023/08/11 07:43:40;;;;;;;;;;;;;;;34.38;27.27;98847.81;5091898;27;19948;-84
2023/08/11 07:46:06;;;;;;;;;;;;;;;34.56;26.64;98844.88;5060673;27;19931;-83
2023/08/11 07:48:32;;;;;;;;;;;;;;;34.66;26.02;98851.25;5085293;28;19921;-83
2023/08/11 07:50:58;;;;;;;;;;;;;;;34.69;26.59;98844.59;5075592;27;19932;-83
2023/08/11 07:53:24;;;;;;;;;;;;;;;34.64;25.69;98843.19;5073779;27;19924;-83
2023/08/11 07:55:50;;;;;;;;;;;;;;;34.44;24.71;98839.38;5079251;27;19928;-82
2023/08/11 07:58:17;;;;;;;;;;;;;;;34.47;26.63;98847.75;5074524;27;19920;-84
2023/08/11 08:00:43;;;;;;;;;;;;;;;34.70;26.96;98846.94;5082842;27;19920;-84
2023/08/11 08:03:09;;;;;;;;;;;;;;;34.75;25.49;98839.78;5075093;27;19924;-86
2023/08/11 08:05:35;;;;;;;;;;;;;;;34.54;25.91;98833.13;5074555;27;19968;-85
2023/08/11 08:08:01;;;;;;;;;;;;;;;34.29;27.32;98835.69;5070676;27;19920;-86
2023/08/11 08:10:27;;;;;;;;;;;;;;;34.34;24.80;98840.72;5073295;27;19920;-85
2023/08/11 08:12:54;;;;;;;;;;;;;;;34.39;26.37;98832.28;5089109;27;19924;-86
2023/08/11 08:15:20;;;;;;;;;;;;;;;34.65;25.61;98830.53;5085130;27;19959;-86
2023/08/11 08:17:46;;;;;;;;;;;;;;;34.74;26.31;98833.28;5054485;27;19976;-86
2023/08/11 08:20:16;;;;;;;;;;;;;;;34.43;28.58;98843.50;5076420;27;19920;-87
2023/08/11 08:22:42;;;;;;;;;;;;;;;33.74;27.31;98838.06;5082057;27;19921;-86
2023/08/11 08:25:08;;;;;;;;;;;;;;;34.05;27.01;98836.50;5081865;27;19948;-87
2023/08/11 08:27:35;;;;;;;;;;;;;;;34.18;26.63;98844.00;5087270;28;19976;-86
2023/08/11 08:30:01;;;;;;;;;;;;;;;34.61;25.27;98844.16;5073667;28;20011;-85
2023/08/11 08:32:29;;;;;;;;;;;;;;;34.47;26.95;98844.13;5077920;28;20007;-85
2023/08/11 08:34:55;;;;;;;;;;;;;;;34.44;25.88;98845.88;5082081;27;20023;-86
2023/08/11 08:37:24;;;;;;;;;;;;;;;34.55;25.24;98840.44;5074925;28;20417;-85
2023/08/11 08:39:53;;;;;;;;;;;;;;;34.67;26.12;98832.88;5066239;28;20288;-86
2023/08/11 08:42:19;;;;;;;;;;;;;;;34.93;24.37;98842.47;5091376;28;19931;-86
2023/08/11 08:44:48;;;;;;;;;;;;;;;35.05;24.96;98837.78;5088053;27;19924;-86
2023/08/11 08:47:14;;;;;;;;;;;;;;;35.24;26.36;98837.06;5079373;28;19972;-88
2023/08/11 08:49:41;;;;;;;;;;;;;;;35.19;25.97;98842.69;5077206;28;19920;-84
2023/08/11 08:52:07;;;;;;;;;;;;;;;35.27;24.38;98841.81;5087076;28;20341;-84
2023/08/11 08:54:34;;;;;;;;;;;;;;;35.55;26.30;98845.16;5083175;27;19927;-84
2023/08/11 08:57:01;;;;;;;;;;;;;;;35.51;25.67;98832.34;5079462;27;19922;-84
2023/08/11 08:59:28;;;;;;;;;;;;;;;35.07;23.61;98838.88;5058228;28;20278;-84
2023/08/11 09:01:54;;;;;;;;;;;;;;;34.91;24.19;98844.22;5086007;27;19924;-84
2023/08/11 09:04:21;;;;;;;;;;;;;;;34.83;25.27;98843.81;5075420;27;20007;-85
2023/08/11 09:06:47;;;;;;;;;;;;;;;34.73;24.39;98845.97;5072232;28;19928;-85
2023/08/11 09:09:15;;;;;;;;;;;;;;;35.04;23.56;98836.97;5077248;28;19916;-83
2023/08/11 09:11:41;;;;;;;;;;;;;;;34.38;24.13;98844.19;5077319;27;19925;-84
2023/08/11 09:14:08;;;;;;;;;;;;;;;34.01;27.19;98844.41;5070855;27;19947;-83
2023/08/11 09:16:37;;;;;;;;;;;;;;;34.50;25.50;98843.94;5075467;27;20213;-83
2023/08/11 09:19:04;;;;;;;;;;;;;;;34.38;25.90;98847.81;5080990;27;19920;-84
2023/08/11 09:21:30;;;;;;;;;;;;;;;33.06;28.49;98843.38;5078994;28;19943;-83
2023/08/11 09:23:56;;;;;;;;;;;;;;;33.18;24.50;98838.75;5075711;28;20402;-83
2023/08/11 09:26:23;;;;;;;;;;;;;;;33.91;24.48;98842.09;5077787;28;19966;-84
2023/08/11 09:28:50;;;;;;;;;;;;;;;34.35;23.82;98848.03;5075338;27;19920;-83
2023/08/11 09:31:19;;;;;;;;;;;;;;;34.98;22.87;98844.63;5079700;28;19920;-82
2023/08/11 09:33:46;;;;;;;;;;;;;;;34.71;22.20;98839.97;5075036;27;19995;-83
2023/08/11 09:36:12;;;;;;;;;;;;;;;34.75;25.32;98837.72;5082658;27;20011;-82
2023/08/11 09:38:41;;;;;;;;;;;;;;;34.54;22.42;98838.84;5089668;28;19912;-83
2023/08/11 09:41:08;;;;;;;;;;;;;;;34.92;22.53;98840.09;5087366;27;19968;-83
2023/08/11 09:43:35;;;;;;;;;;;;;;;35.36;23.35;98844.53;5072439;27;20055;-84
2023/08/11 09:46:01;;;;;;;;;;;;;;;35.74;23.80;98842.84;5061003;27;19962;-83
2023/08/11 09:48:27;;;;;;;;;;;;;;;35.93;23.42;98832.72;5075619;27;19920;-82
2023/08/11 09:50:53;;;;;;;;;;;;;;;36.15;24.82;98833.09;5074578;28;19928;-83
2023/08/11 09:53:22;;;;;;;;;;;;;;;36.32;22.37;98830.41;5076947;27;19932;-83
2023/08/11 09:55:48;;;;;;;;;;;;;;;36.30;22.05;98836.66;5076398;27;19920;-84
2023/08/11 09:58:15;;;;;;;;;;;;;;;36.12;24.66;98834.06;5069580;27;19965;-83
2023/08/11 10:00:42;;;;;;;;;;;;;;;36.42;21.89;98829.00;5078508;27;19926;-83
2023/08/11 10:03:12;;;;;;;;;;;;;;;36.30;22.94;98827.28;5076113;27;19924;-83
2023/08/11 10:05:41;;;;;;;;;;;;;;;36.08;23.63;98824.13;5077078;28;20364;-82
2023/08/11 10:08:09;;;;;;;;;;;;;;;36.27;22.24;98828.31;5078791;27;19928;-82
2023/08/11 10:10:36;;;;;;;;;;;;;;;36.41;23.02;98822.47;5075194;28;19964;-85
2023/08/11 10:13:07;;;;;;;;;;;;;;;36.65;22.73;98819.41;5077589;27;19954;-83
2023/08/11 10:15:33;;;;;;;;;;;;;;;36.61;22.48;98824.56;5076435;27;19929;-84
2023/08/11 10:18:00;;;;;;;;;;;;;;;36.79;22.76;98824.25;5072959;27;19921;-82
2023/08/11 10:20:26;;;;;;;;;;;;;;;36.94;20.33;98819.25;5079836;27;20299;-83
2023/08/11 10:22:53;;;;;;;;;;;;;;;36.80;22.04;98825.84;5078283;27;20052;-83
2023/08/11 10:25:19;;;;;;;;;;;;;;;36.47;22.90;98828.31;5073374;27;19921;-83
2023/08/11 10:27:45;;;;;;;;;;;;;;;36.34;21.14;98825.78;5058139;27;20019;-84
2023/08/11 10:30:13;;;;;;;;;;;;;;;36.21;20.42;98824.56;5076972;27;19972;-84
2023/08/11 10:32:39;;;;;;;;;;;;;;;36.06;18.82;98833.19;5069023;27;19933;-84
2023/08/11 10:35:28;;;;;;;;;;;;;;;36.38;21.02;98822.72;5064311;27;19924;-85
2023/08/11 10:37:59;;;;;;;;;;;;;;;36.35;23.31;98823.69;5073341;28;20443;-84
2023/08/11 10:40:33;;;;;;;;;;;;;;;36.42;20.36;98820.41;5075440;27;19924;-84
2023/08/11 10:42:59;;;;;;;;;;;;;;;36.57;22.65;98827.63;5074219;27;19924;-84
2023/08/11 10:45:26;;;;;;;;;;;;;;;36.48;25.00;98822.06;5078380;27;20011;-84
2023/08/11 10:47:52;;;;;;;;;;;;;;;36.03;25.56;98828.50;5078683;27;19927;-84
2023/08/11 10:50:19;;;;;;;;;;;;;;;35.75;21.95;98830.13;5069996;27;19931;-83
2023/08/11 10:53:04;;;;;;;;;;;;;;;36.16;21.95;98828.13;5079113;27;20368;-82
2023/08/11 10:55:32;;;;;;;;;;;;;;;35.08;21.21;98831.84;5075870;27;20023;-81
2023/08/11 10:58:17;;;;;;;;;;;;;;;34.42;27.89;98822.78;5073924;27;19979;-83
2023/08/11 11:00:43;;;;;;;;;;;;;;;35.16;22.04;98830.19;5083199;27;19920;-80
2023/08/11 11:03:11;;;;;;;;;;;;;;;35.38;21.21;98815.50;5082583;27;19923;-80
2023/08/11 11:05:40;;;;;;;;;;;;;;;35.81;22.15;98814.63;5083382;27;19927;-84
2023/08/11 11:08:06;;;;;;;;;;;;;;;36.32;21.78;98816.91;5075989;27;20022;-86
2023/08/11 11:10:32;;;;;;;;;;;;;;;35.19;23.06;98825.56;5072965;27;23333;-86
2023/08/11 11:12:58;;;;;;;;;;;;;;;35.49;23.60;98812.81;5081894;27;20001;-84
2023/08/11 11:15:26;;;;;;;;;;;;;;;35.91;21.95;98813.22;5078429;27;20423;-85
2023/08/11 11:17:52;;;;;;;;;;;;;;;36.43;22.60;98813.41;5077245;27;19924;-85
2023/08/11 11:20:18;;;;;;;;;;;;;;;36.78;23.50;98819.81;5062857;27;19924;-87
2023/08/11 11:22:50;;;;;;;;;;;;;;;37.33;24.82;98808.91;5076312;27;19931;-84
2023/08/11 11:25:20;;;;;;;;;;;;;;;37.71;23.07;98804.00;5061218;27;20376;-85
2023/08/11 11:27:47;;;;;;;;;;;;;;;37.13;22.71;98808.22;5082874;27;19995;-84
2023/08/11 11:30:13;;;;;;;;;;;;;;;36.61;22.79;98807.41;5077422;27;19920;-85
2023/08/11 11:32:40;;;;;;;;;;;;;;;35.47;25.87;98806.81;5077790;27;19920;-87
2023/08/11 11:35:09;;;;;;;;;;;;;;;33.89;26.85;98796.97;5081937;27;19920;-87
2023/08/11 11:37:36;;;;;;;;;;;;;;;34.88;23.19;98796.69;5070590;27;21004;-87
2023/08/11 11:40:07;;;;;;;;;;;;;;;36.13;19.79;98794.84;5077916;27;19943;-85
2023/08/11 11:42:36;;;;;;;;;;;;;;;36.72;21.44;98802.59;5085017;27;20312;-85
2023/08/11 11:45:03;;;;;;;;;;;;;;;37.30;21.27;98807.06;5080096;27;19928;-84
2023/08/11 11:47:29;;;;;;;;;;;;;;;37.54;18.96;98798.16;5074798;27;19936;-84
2023/08/11 11:49:56;;;;;;;;;;;;;;;37.31;19.76;98810.72;5086903;27;20404;-84
2023/08/11 11:52:22;;;;;;;;;;;;;;;37.48;21.00;98805.16;5087954;27;20048;-84
2023/08/11 11:54:55;;;;;;;;;;;;;;;37.30;20.85;98804.19;5087485;28;19923;-84
2023/08/11 11:57:22;;;;;;;;;;;;;;;37.33;21.08;98803.19;5090955;27;20399;-84
2023/08/11 11:59:50;;;;;;;;;;;;;;;37.68;19.44;98802.16;5091072;28;19927;-83
2023/08/11 12:02:17;;;;;;;;;;;;;;;38.10;20.75;98802.16;5070711;27;20433;-84
2023/08/11 12:04:43;;;;;;;;;;;;;;;38.04;19.79;98795.63;5085926;27;20381;-84
2023/08/11 12:07:23;;;;;;;;;;;;;;;38.11;20.06;98795.16;5085016;27;19916;-84
2023/08/11 12:09:50;;;;;;;;;;;;;;;38.10;20.11;98793.56;5076654;27;19924;-84
2023/08/11 12:12:16;;;;;;;;;;;;;;;37.99;20.94;98788.56;5088634;27;20371;-84
2023/08/11 12:14:42;;;;;;;;;;;;;;;38.23;20.30;98801.72;5082759;27;20353;-85
2023/08/11 12:17:08;;;;;;;;;;;;;;;38.39;19.73;98798.16;5092397;27;19920;-82
2023/08/11 12:19:35;;;;;;;;;;;;;;;38.42;19.90;98800.78;5084814;27;19920;-83
2023/08/11 12:22:01;;;;;;;;;;;;;;;38.22;16.75;98798.06;5085344;27;19928;-82
2023/08/11 12:24:27;;;;;;;;;;;;;;;38.18;21.35;98800.41;5091273;27;19920;-83
2023/08/11 12:26:53;;;;;;;;;;;;;;;38.13;19.49;98797.50;5089133;28;19968;-84
2023/08/11 12:29:19;;;;;;;;;;;;;;;36.16;28.96;98799.53;5089995;27;19964;-82
2023/08/11 12:31:45;;;;;;;;;;;;;;;36.09;22.12;98797.91;5087312;27;19932;-82
2023/08/11 12:34:11;;;;;;;;;;;;;;;37.17;21.13;98798.09;5083069;27;20288;-82
2023/08/11 12:36:37;;;;;;;;;;;;;;;37.79;23.43;98803.00;5075995;27;19928;-81
2023/08/11 12:39:03;;;;;;;;;;;;;;;38.13;22.10;98798.28;5071460;27;19920;-82
2023/08/11 12:41:29;;;;;;;;;;;;;;;38.35;21.68;98800.47;5079992;27;20377;-83
2023/08/11 12:43:55;;;;;;;;;;;;;;;38.68;21.96;98804.25;5078851;28;19924;-83
2023/08/11 12:46:21;;;;;;;;;;;;;;;38.89;22.64;98809.78;5073564;28;19928;-82